sensor_id;sensor_type;location;lat;lon;timestamp;P1;durP1;ratioP1;P2;durP2;ratioP2
11121;SDS011;5615;49.304;10.576;2023-10-13T00:01:44;61.40;;;35.27;;
11121;SDS011;5615;49.304;10.576;2023-10-13T00:04:12;60.13;;;34.27;;
11121;SDS011;5615;49.304;10.576;2023-10-13T00:06:39;55.60;;;34.93;;
11121;SDS011;5615;49.304;10.576;2023-10-13T00:09:07;52.57;;;32.53;;
11121;SDS011;5615;49.304;10.576;2023-10-13T00:11:40;56.03;;;33.47;;
11121;SDS011;5615;49.304;10.576;2023-10-13T00:14:11;57.03;;;33.40;;
11121;SDS011;5615;49.304;10.576;2023-10-13T00:16:41;56.33;;;34.83;;
11121;SDS011;5615;49.304;10.576;2023-10-13T00:19:08;58.90;;;34.43;;
11121;SDS011;5615;49.304;10.576;2023-10-13T00:21:38;52.83;;;33.23;;
11121;SDS011;5615;49.304;10.576;2023-10-13T00:24:07;57.93;;;34.03;;
11121;SDS011;5615;49.304;10.576;2023-10-13T00:26:38;53.80;;;33.13;;
11121;SDS011;5615;49.304;10.576;2023-10-13T00:29:08;54.40;;;33.93;;
11121;SDS011;5615;49.304;10.576;2023-10-13T00:31:42;53.13;;;33.30;;
11121;SDS011;5615;49.304;10.576;2023-10-13T00:34:09;55.50;;;34.47;;
11121;SDS011;5615;49.304;10.576;2023-10-13T00:36:37;55.07;;;33.37;;
11121;SDS011;5615;49.304;10.576;2023-10-13T00:39:12;55.17;;;34.37;;
11121;SDS011;5615;49.304;10.576;2023-10-13T00:41:40;62.23;;;37.10;;
11121;SDS011;5615;49.304;10.576;2023-10-13T00:44:17;57.37;;;35.00;;
11121;SDS011;5615;49.304;10.576;2023-10-13T00:46:52;56.30;;;34.07;;
11121;SDS011;5615;49.304;10.576;2023-10-13T00:49:20;59.10;;;34.13;;
11121;SDS011;5615;49.304;10.576;2023-10-13T00:51:48;56.97;;;32.93;;
11121;SDS011;5615;49.304;10.576;2023-10-13T00:54:14;57.00;;;34.43;;
11121;SDS011;5615;49.304;10.576;2023-10-13T00:56:43;57.40;;;34.77;;
11121;SDS011;5615;49.304;10.576;2023-10-13T00:59:14;57.07;;;34.37;;
11121;SDS011;5615;49.304;10.576;2023-10-13T01:01:41;61.07;;;34.70;;
11121;SDS011;5615;49.304;10.576;2023-10-13T01:04:09;54.83;;;32.13;;
11121;SDS011;5615;49.304;10.576;2023-10-13T01:06:37;53.47;;;32.47;;
11121;SDS011;5615;49.304;10.576;2023-10-13T01:09:04;51.97;;;32.90;;
11121;SDS011;5615;49.304;10.576;2023-10-13T01:11:38;49.97;;;32.67;;
11121;SDS011;5615;49.304;10.576;2023-10-13T01:14:04;41.87;;;29.60;;
11121;SDS011;5615;49.304;10.576;2023-10-13T01:16:31;52.60;;;32.63;;
11121;SDS011;5615;49.304;10.576;2023-10-13T01:18:57;51.63;;;31.67;;
11121;SDS011;5615;49.304;10.576;2023-10-13T01:21:26;53.07;;;31.90;;
11121;SDS011;5615;49.304;10.576;2023-10-13T01:23:54;53.37;;;32.50;;
11121;SDS011;5615;49.304;10.576;2023-10-13T01:26:21;46.60;;;30.80;;
11121;SDS011;5615;49.304;10.576;2023-10-13T01:28:49;51.43;;;32.63;;
11121;SDS011;5615;49.304;10.576;2023-10-13T01:31:16;55.40;;;32.40;;
11121;SDS011;5615;49.304;10.576;2023-10-13T01:33:50;63.80;;;36.97;;
11121;SDS011;5615;49.304;10.576;2023-10-13T01:36:19;57.07;;;35.63;;
11121;SDS011;5615;49.304;10.576;2023-10-13T01:38:46;53.17;;;35.33;;
11121;SDS011;5615;49.304;10.576;2023-10-13T01:41:14;57.23;;;35.87;;
11121;SDS011;5615;49.304;10.576;2023-10-13T01:43:40;55.70;;;36.20;;
11121;SDS011;5615;49.304;10.576;2023-10-13T01:46:07;61.17;;;36.37;;
11121;SDS011;5615;49.304;10.576;2023-10-13T01:48:34;54.10;;;33.73;;
11121;SDS011;5615;49.304;10.576;2023-10-13T01:51:04;55.53;;;33.47;;
11121;SDS011;5615;49.304;10.576;2023-10-13T01:53:34;52.67;;;33.37;;
11121;SDS011;5615;49.304;10.576;2023-10-13T01:56:01;50.03;;;32.87;;
11121;SDS011;5615;49.304;10.576;2023-10-13T01:58:32;53.47;;;33.03;;
11121;SDS011;5615;49.304;10.576;2023-10-13T02:00:59;51.03;;;32.17;;
11121;SDS011;5615;49.304;10.576;2023-10-13T02:03:26;54.73;;;33.70;;
11121;SDS011;5615;49.304;10.576;2023-10-13T02:05:55;51.13;;;32.17;;
11121;SDS011;5615;49.304;10.576;2023-10-13T02:08:29;50.80;;;31.40;;
11121;SDS011;5615;49.304;10.576;2023-10-13T02:10:55;57.53;;;34.23;;
11121;SDS011;5615;49.304;10.576;2023-10-13T02:13:25;55.17;;;33.70;;
11121;SDS011;5615;49.304;10.576;2023-10-13T02:15:54;58.40;;;34.33;;
11121;SDS011;5615;49.304;10.576;2023-10-13T02:18:23;53.53;;;32.90;;
11121;SDS011;5615;49.304;10.576;2023-10-13T02:20:52;50.07;;;32.83;;
11121;SDS011;5615;49.304;10.576;2023-10-13T02:23:29;50.80;;;32.60;;
11121;SDS011;5615;49.304;10.576;2023-10-13T02:25:55;50.37;;;32.03;;
11121;SDS011;5615;49.304;10.576;2023-10-13T02:28:25;49.97;;;33.40;;
11121;SDS011;5615;49.304;10.576;2023-10-13T02:30:55;50.23;;;30.70;;
11121;SDS011;5615;49.304;10.576;2023-10-13T02:33:22;52.87;;;33.07;;
11121;SDS011;5615;49.304;10.576;2023-10-13T02:35:54;47.77;;;31.07;;
11121;SDS011;5615;49.304;10.576;2023-10-13T02:38:21;46.70;;;31.83;;
11121;SDS011;5615;49.304;10.576;2023-10-13T02:40:58;50.43;;;30.57;;
11121;SDS011;5615;49.304;10.576;2023-10-13T02:43:30;46.40;;;29.70;;
11121;SDS011;5615;49.304;10.576;2023-10-13T02:45:59;50.20;;;30.73;;
11121;SDS011;5615;49.304;10.576;2023-10-13T02:48:26;50.03;;;31.27;;
11121;SDS011;5615;49.304;10.576;2023-10-13T02:50:56;49.07;;;32.17;;
11121;SDS011;5615;49.304;10.576;2023-10-13T02:53:27;51.97;;;33.23;;
11121;SDS011;5615;49.304;10.576;2023-10-13T02:55:53;53.07;;;35.23;;
11121;SDS011;5615;49.304;10.576;2023-10-13T02:58:23;49.17;;;32.83;;
11121;SDS011;5615;49.304;10.576;2023-10-13T03:01:04;49.13;;;31.97;;
11121;SDS011;5615;49.304;10.576;2023-10-13T03:03:41;54.33;;;32.90;;
11121;SDS011;5615;49.304;10.576;2023-10-13T03:06:08;53.47;;;31.47;;
11121;SDS011;5615;49.304;10.576;2023-10-13T03:08:36;47.23;;;32.10;;
11121;SDS011;5615;49.304;10.576;2023-10-13T03:11:02;52.90;;;31.23;;
11121;SDS011;5615;49.304;10.576;2023-10-13T03:13:30;46.60;;;30.50;;
11121;SDS011;5615;49.304;10.576;2023-10-13T03:15:58;45.63;;;30.60;;
11121;SDS011;5615;49.304;10.576;2023-10-13T03:18:26;42.80;;;28.47;;
11121;SDS011;5615;49.304;10.576;2023-10-13T03:20:54;47.30;;;28.73;;
11121;SDS011;5615;49.304;10.576;2023-10-13T03:23:24;52.17;;;31.20;;
11121;SDS011;5615;49.304;10.576;2023-10-13T03:25:50;44.10;;;29.23;;
11121;SDS011;5615;49.304;10.576;2023-10-13T03:28:20;51.30;;;30.43;;
11121;SDS011;5615;49.304;10.576;2023-10-13T03:30:50;49.37;;;31.00;;
11121;SDS011;5615;49.304;10.576;2023-10-13T03:33:18;48.43;;;30.30;;
11121;SDS011;5615;49.304;10.576;2023-10-13T03:35:52;56.20;;;32.10;;
11121;SDS011;5615;49.304;10.576;2023-10-13T03:38:19;46.63;;;30.77;;
11121;SDS011;5615;49.304;10.576;2023-10-13T03:40:52;46.57;;;29.17;;
11121;SDS011;5615;49.304;10.576;2023-10-13T03:43:35;49.47;;;31.03;;
11121;SDS011;5615;49.304;10.576;2023-10-13T03:46:10;51.27;;;31.47;;
11121;SDS011;5615;49.304;10.576;2023-10-13T03:48:36;49.97;;;29.47;;
11121;SDS011;5615;49.304;10.576;2023-10-13T03:51:18;46.33;;;30.03;;
11121;SDS011;5615;49.304;10.576;2023-10-13T03:53:45;52.97;;;31.30;;
11121;SDS011;5615;49.304;10.576;2023-10-13T03:56:18;50.17;;;31.47;;
11121;SDS011;5615;49.304;10.576;2023-10-13T03:58:51;45.80;;;30.23;;
11121;SDS011;5615;49.304;10.576;2023-10-13T04:01:19;57.67;;;32.43;;
11121;SDS011;5615;49.304;10.576;2023-10-13T04:03:56;55.83;;;32.97;;
11121;SDS011;5615;49.304;10.576;2023-10-13T04:06:29;46.27;;;31.07;;
11121;SDS011;5615;49.304;10.576;2023-10-13T04:09:12;49.33;;;30.67;;
11121;SDS011;5615;49.304;10.576;2023-10-13T04:11:56;49.00;;;29.93;;
11121;SDS011;5615;49.304;10.576;2023-10-13T04:14:40;48.20;;;30.27;;
11121;SDS011;5615;49.304;10.576;2023-10-13T04:17:36;48.10;;;29.70;;
11121;SDS011;5615;49.304;10.576;2023-10-13T04:20:10;65.57;;;39.60;;
11121;SDS011;5615;49.304;10.576;2023-10-13T04:22:53;65.23;;;45.97;;
11121;SDS011;5615;49.304;10.576;2023-10-13T04:25:52;50.93;;;37.00;;
11121;SDS011;5615;49.304;10.576;2023-10-13T04:28:33;52.40;;;34.97;;
11121;SDS011;5615;49.304;10.576;2023-10-13T04:31:16;55.30;;;36.27;;
11121;SDS011;5615;49.304;10.576;2023-10-13T04:34:10;52.07;;;33.93;;
11121;SDS011;5615;49.304;10.576;2023-10-13T04:36:44;46.73;;;32.93;;
11121;SDS011;5615;49.304;10.576;2023-10-13T04:39:12;42.50;;;29.70;;
11121;SDS011;5615;49.304;10.576;2023-10-13T04:41:54;48.20;;;30.33;;
11121;SDS011;5615;49.304;10.576;2023-10-13T04:44:36;47.00;;;30.97;;
11121;SDS011;5615;49.304;10.576;2023-10-13T04:47:19;52.23;;;30.60;;
11121;SDS011;5615;49.304;10.576;2023-10-13T04:49:47;45.37;;;29.20;;
11121;SDS011;5615;49.304;10.576;2023-10-13T04:52:17;39.80;;;27.70;;
11121;SDS011;5615;49.304;10.576;2023-10-13T04:55:05;39.33;;;27.63;;
11121;SDS011;5615;49.304;10.576;2023-10-13T04:57:42;44.90;;;27.37;;
11121;SDS011;5615;49.304;10.576;2023-10-13T05:00:18;45.63;;;28.90;;
11121;SDS011;5615;49.304;10.576;2023-10-13T05:03:03;42.80;;;28.27;;
11121;SDS011;5615;49.304;10.576;2023-10-13T05:05:47;45.87;;;28.83;;
11121;SDS011;5615;49.304;10.576;2023-10-13T05:08:31;42.80;;;28.97;;
11121;SDS011;5615;49.304;10.576;2023-10-13T05:11:17;43.43;;;29.27;;
11121;SDS011;5615;49.304;10.576;2023-10-13T05:14:01;41.73;;;27.53;;
11121;SDS011;5615;49.304;10.576;2023-10-13T05:16:42;44.90;;;28.87;;
11121;SDS011;5615;49.304;10.576;2023-10-13T05:19:26;46.87;;;26.40;;
11121;SDS011;5615;49.304;10.576;2023-10-13T05:22:10;40.73;;;27.40;;
11121;SDS011;5615;49.304;10.576;2023-10-13T05:24:54;37.40;;;25.27;;
11121;SDS011;5615;49.304;10.576;2023-10-13T05:27:40;41.30;;;26.63;;
11121;SDS011;5615;49.304;10.576;2023-10-13T05:30:39;37.73;;;24.53;;
11121;SDS011;5615;49.304;10.576;2023-10-13T05:33:23;41.07;;;25.90;;
11121;SDS011;5615;49.304;10.576;2023-10-13T05:36:09;28.83;;;22.27;;
11121;SDS011;5615;49.304;10.576;2023-10-13T05:38:55;32.93;;;23.27;;
11121;SDS011;5615;49.304;10.576;2023-10-13T05:41:39;35.60;;;23.80;;
11121;SDS011;5615;49.304;10.576;2023-10-13T05:44:21;31.20;;;22.47;;
11121;SDS011;5615;49.304;10.576;2023-10-13T05:47:02;37.57;;;24.57;;
11121;SDS011;5615;49.304;10.576;2023-10-13T05:49:43;33.70;;;26.67;;
11121;SDS011;5615;49.304;10.576;2023-10-13T05:52:18;36.50;;;25.93;;
11121;SDS011;5615;49.304;10.576;2023-10-13T05:54:45;38.87;;;23.37;;
11121;SDS011;5615;49.304;10.576;2023-10-13T05:57:30;33.00;;;22.73;;
11121;SDS011;5615;49.304;10.576;2023-10-13T06:00:26;33.57;;;23.00;;
11121;SDS011;5615;49.304;10.576;2023-10-13T06:03:10;29.37;;;21.53;;
11121;SDS011;5615;49.304;10.576;2023-10-13T06:05:54;36.67;;;22.93;;
11121;SDS011;5615;49.304;10.576;2023-10-13T06:08:39;39.03;;;23.27;;
11121;SDS011;5615;49.304;10.576;2023-10-13T06:11:23;33.10;;;22.93;;
11121;SDS011;5615;49.304;10.576;2023-10-13T06:14:07;34.07;;;22.57;;
11121;SDS011;5615;49.304;10.576;2023-10-13T06:16:53;35.13;;;22.90;;
11121;SDS011;5615;49.304;10.576;2023-10-13T06:19:37;32.80;;;22.73;;
11121;SDS011;5615;49.304;10.576;2023-10-13T06:22:21;29.97;;;21.93;;
11121;SDS011;5615;49.304;10.576;2023-10-13T06:25:05;32.80;;;23.67;;
11121;SDS011;5615;49.304;10.576;2023-10-13T06:27:50;35.43;;;23.23;;
11121;SDS011;5615;49.304;10.576;2023-10-13T06:30:34;30.57;;;22.63;;
11121;SDS011;5615;49.304;10.576;2023-10-13T06:33:02;32.93;;;21.90;;
11121;SDS011;5615;49.304;10.576;2023-10-13T06:35:29;32.43;;;23.30;;
11121;SDS011;5615;49.304;10.576;2023-10-13T06:37:56;29.67;;;22.80;;
11121;SDS011;5615;49.304;10.576;2023-10-13T06:40:25;33.10;;;22.77;;
11121;SDS011;5615;49.304;10.576;2023-10-13T06:42:58;29.77;;;21.87;;
11121;SDS011;5615;49.304;10.576;2023-10-13T06:45:37;30.63;;;22.43;;
11121;SDS011;5615;49.304;10.576;2023-10-13T06:48:06;33.40;;;22.70;;
11121;SDS011;5615;49.304;10.576;2023-10-13T06:50:36;32.13;;;21.63;;
11121;SDS011;5615;49.304;10.576;2023-10-13T06:53:06;32.57;;;21.67;;
11121;SDS011;5615;49.304;10.576;2023-10-13T06:55:37;29.33;;;21.00;;
11121;SDS011;5615;49.304;10.576;2023-10-13T06:58:05;24.90;;;19.53;;
11121;SDS011;5615;49.304;10.576;2023-10-13T07:00:31;23.73;;;18.27;;
11121;SDS011;5615;49.304;10.576;2023-10-13T07:02:59;24.07;;;18.93;;
11121;SDS011;5615;49.304;10.576;2023-10-13T07:05:34;26.77;;;18.87;;
11121;SDS011;5615;49.304;10.576;2023-10-13T07:08:03;26.37;;;18.47;;
11121;SDS011;5615;49.304;10.576;2023-10-13T07:10:30;26.17;;;16.57;;
11121;SDS011;5615;49.304;10.576;2023-10-13T07:13:09;20.87;;;16.37;;
11121;SDS011;5615;49.304;10.576;2023-10-13T07:15:38;20.80;;;16.20;;
11121;SDS011;5615;49.304;10.576;2023-10-13T07:18:10;19.73;;;14.10;;
11121;SDS011;5615;49.304;10.576;2023-10-13T07:20:39;20.60;;;13.00;;
11121;SDS011;5615;49.304;10.576;2023-10-13T07:23:09;19.13;;;13.03;;
11121;SDS011;5615;49.304;10.576;2023-10-13T07:25:42;17.47;;;12.63;;
11121;SDS011;5615;49.304;10.576;2023-10-13T07:28:17;15.97;;;12.70;;
11121;SDS011;5615;49.304;10.576;2023-10-13T07:30:43;22.07;;;11.83;;
11121;SDS011;5615;49.304;10.576;2023-10-13T07:33:34;15.97;;;11.30;;
11121;SDS011;5615;49.304;10.576;2023-10-13T07:36:02;14.83;;;10.37;;
11121;SDS011;5615;49.304;10.576;2023-10-13T07:38:36;13.83;;;9.77;;
11121;SDS011;5615;49.304;10.576;2023-10-13T07:41:07;15.50;;;10.37;;
11121;SDS011;5615;49.304;10.576;2023-10-13T07:43:34;13.48;;;9.93;;
11121;SDS011;5615;49.304;10.576;2023-10-13T07:46:02;12.75;;;8.68;;
11121;SDS011;5615;49.304;10.576;2023-10-13T07:48:34;14.65;;;9.10;;
11121;SDS011;5615;49.304;10.576;2023-10-13T07:51:03;14.32;;;8.40;;
11121;SDS011;5615;49.304;10.576;2023-10-13T07:53:34;9.95;;;7.88;;
11121;SDS011;5615;49.304;10.576;2023-10-13T07:56:04;12.63;;;8.10;;
11121;SDS011;5615;49.304;10.576;2023-10-13T07:58:33;14.45;;;7.82;;
11121;SDS011;5615;49.304;10.576;2023-10-13T08:01:12;13.00;;;7.90;;
11121;SDS011;5615;49.304;10.576;2023-10-13T08:03:42;12.38;;;7.63;;
11121;SDS011;5615;49.304;10.576;2023-10-13T08:06:13;10.15;;;6.80;;
11121;SDS011;5615;49.304;10.576;2023-10-13T08:08:58;13.30;;;7.53;;
11121;SDS011;5615;49.304;10.576;2023-10-13T08:11:33;14.60;;;6.75;;
11121;SDS011;5615;49.304;10.576;2023-10-13T08:14:02;9.30;;;7.22;;
11121;SDS011;5615;49.304;10.576;2023-10-13T08:16:46;11.18;;;6.63;;
11121;SDS011;5615;49.304;10.576;2023-10-13T08:19:18;11.85;;;7.05;;
11121;SDS011;5615;49.304;10.576;2023-10-13T08:21:47;14.13;;;6.78;;
11121;SDS011;5615;49.304;10.576;2023-10-13T08:24:19;9.35;;;6.47;;
11121;SDS011;5615;49.304;10.576;2023-10-13T08:26:52;7.07;;;5.97;;
11121;SDS011;5615;49.304;10.576;2023-10-13T08:29:37;11.32;;;6.18;;
11121;SDS011;5615;49.304;10.576;2023-10-13T08:32:37;8.02;;;6.13;;
11121;SDS011;5615;49.304;10.576;2023-10-13T08:35:19;13.95;;;7.25;;
11121;SDS011;5615;49.304;10.576;2023-10-13T08:38:00;13.30;;;6.20;;
11121;SDS011;5615;49.304;10.576;2023-10-13T08:40:38;9.10;;;6.10;;
11121;SDS011;5615;49.304;10.576;2023-10-13T08:43:24;9.93;;;6.32;;
11121;SDS011;5615;49.304;10.576;2023-10-13T08:46:05;8.07;;;5.65;;
11121;SDS011;5615;49.304;10.576;2023-10-13T08:48:34;10.80;;;6.45;;
11121;SDS011;5615;49.304;10.576;2023-10-13T08:51:02;13.60;;;6.43;;
11121;SDS011;5615;49.304;10.576;2023-10-13T08:53:37;8.82;;;5.32;;
11121;SDS011;5615;49.304;10.576;2023-10-13T08:56:16;8.95;;;5.68;;
11121;SDS011;5615;49.304;10.576;2023-10-13T08:58:43;7.43;;;5.70;;
11121;SDS011;5615;49.304;10.576;2023-10-13T09:01:29;12.15;;;5.90;;
11121;SDS011;5615;49.304;10.576;2023-10-13T09:04:00;8.52;;;5.22;;
11121;SDS011;5615;49.304;10.576;2023-10-13T09:06:41;10.00;;;5.68;;
11121;SDS011;5615;49.304;10.576;2023-10-13T09:09:13;6.13;;;5.28;;
11121;SDS011;5615;49.304;10.576;2023-10-13T09:11:52;10.85;;;5.90;;
11121;SDS011;5615;49.304;10.576;2023-10-13T09:14:32;9.75;;;5.75;;
11121;SDS011;5615;49.304;10.576;2023-10-13T09:17:02;10.45;;;6.00;;
11121;SDS011;5615;49.304;10.576;2023-10-13T09:19:43;12.20;;;5.72;;
11121;SDS011;5615;49.304;10.576;2023-10-13T09:22:20;11.50;;;5.90;;
11121;SDS011;5615;49.304;10.576;2023-10-13T09:24:57;8.00;;;5.38;;
11121;SDS011;5615;49.304;10.576;2023-10-13T09:27:28;9.68;;;6.05;;
11121;SDS011;5615;49.304;10.576;2023-10-13T09:29:55;7.65;;;5.70;;
11121;SDS011;5615;49.304;10.576;2023-10-13T09:32:23;12.13;;;5.70;;
11121;SDS011;5615;49.304;10.576;2023-10-13T09:34:48;9.63;;;5.55;;
11121;SDS011;5615;49.304;10.576;2023-10-13T09:37:16;11.73;;;5.50;;
11121;SDS011;5615;49.304;10.576;2023-10-13T09:39:46;14.15;;;6.00;;
11121;SDS011;5615;49.304;10.576;2023-10-13T09:42:19;8.13;;;5.25;;
11121;SDS011;5615;49.304;10.576;2023-10-13T09:44:48;12.98;;;5.18;;
11121;SDS011;5615;49.304;10.576;2023-10-13T09:47:21;11.43;;;5.25;;
11121;SDS011;5615;49.304;10.576;2023-10-13T09:49:55;11.77;;;5.65;;
11121;SDS011;5615;49.304;10.576;2023-10-13T09:52:30;12.73;;;5.25;;
11121;SDS011;5615;49.304;10.576;2023-10-13T09:55:03;10.68;;;5.47;;
11121;SDS011;5615;49.304;10.576;2023-10-13T09:57:39;11.15;;;5.43;;
11121;SDS011;5615;49.304;10.576;2023-10-13T10:00:11;11.07;;;5.70;;
11121;SDS011;5615;49.304;10.576;2023-10-13T10:03:00;10.38;;;5.25;;
11121;SDS011;5615;49.304;10.576;2023-10-13T10:05:30;8.60;;;5.28;;
11121;SDS011;5615;49.304;10.576;2023-10-13T10:07:59;12.25;;;5.40;;
11121;SDS011;5615;49.304;10.576;2023-10-13T10:10:29;9.65;;;5.43;;
11121;SDS011;5615;49.304;10.576;2023-10-13T10:13:13;8.15;;;5.18;;
11121;SDS011;5615;49.304;10.576;2023-10-13T10:15:46;7.18;;;5.50;;
11121;SDS011;5615;49.304;10.576;2023-10-13T10:18:18;11.23;;;5.20;;
11121;SDS011;5615;49.304;10.576;2023-10-13T10:20:47;10.00;;;5.30;;
11121;SDS011;5615;49.304;10.576;2023-10-13T10:23:22;7.95;;;5.40;;
11121;SDS011;5615;49.304;10.576;2023-10-13T10:25:51;9.30;;;4.40;;
11121;SDS011;5615;49.304;10.576;2023-10-13T10:28:35;9.73;;;5.35;;
11121;SDS011;5615;49.304;10.576;2023-10-13T10:31:04;9.50;;;5.90;;
11121;SDS011;5615;49.304;10.576;2023-10-13T10:33:34;11.13;;;4.80;;
11121;SDS011;5615;49.304;10.576;2023-10-13T10:36:02;9.32;;;5.20;;
11121;SDS011;5615;49.304;10.576;2023-10-13T10:38:30;9.30;;;4.97;;
11121;SDS011;5615;49.304;10.576;2023-10-13T10:41:03;10.38;;;5.20;;
11121;SDS011;5615;49.304;10.576;2023-10-13T10:43:36;11.65;;;5.20;;
11121;SDS011;5615;49.304;10.576;2023-10-13T10:46:11;10.93;;;5.30;;
11121;SDS011;5615;49.304;10.576;2023-10-13T10:48:39;11.52;;;5.18;;
11121;SDS011;5615;49.304;10.576;2023-10-13T10:51:08;10.48;;;5.28;;
11121;SDS011;5615;49.304;10.576;2023-10-13T10:53:46;8.30;;;4.80;;
11121;SDS011;5615;49.304;10.576;2023-10-13T10:56:14;9.10;;;4.88;;
11121;SDS011;5615;49.304;10.576;2023-10-13T10:58:53;9.07;;;5.18;;
11121;SDS011;5615;49.304;10.576;2023-10-13T11:01:21;8.07;;;4.95;;
11121;SDS011;5615;49.304;10.576;2023-10-13T11:03:55;11.57;;;4.93;;
11121;SDS011;5615;49.304;10.576;2023-10-13T11:06:32;11.88;;;4.85;;
11121;SDS011;5615;49.304;10.576;2023-10-13T11:09:03;13.10;;;4.75;;
11121;SDS011;5615;49.304;10.576;2023-10-13T11:11:43;10.18;;;4.68;;
11121;SDS011;5615;49.304;10.576;2023-10-13T11:14:20;8.55;;;4.55;;
11121;SDS011;5615;49.304;10.576;2023-10-13T11:16:48;8.90;;;5.03;;
11121;SDS011;5615;49.304;10.576;2023-10-13T11:19:19;11.35;;;4.65;;
11121;SDS011;5615;49.304;10.576;2023-10-13T11:21:50;7.28;;;4.57;;
11121;SDS011;5615;49.304;10.576;2023-10-13T11:24:18;6.82;;;4.65;;
11121;SDS011;5615;49.304;10.576;2023-10-13T11:26:46;8.93;;;4.50;;
11121;SDS011;5615;49.304;10.576;2023-10-13T11:29:17;10.90;;;4.82;;
11121;SDS011;5615;49.304;10.576;2023-10-13T11:31:49;7.63;;;4.55;;
11121;SDS011;5615;49.304;10.576;2023-10-13T11:34:23;8.75;;;4.70;;
11121;SDS011;5615;49.304;10.576;2023-10-13T11:36:50;7.75;;;4.45;;
11121;SDS011;5615;49.304;10.576;2023-10-13T11:39:16;6.65;;;4.18;;
11121;SDS011;5615;49.304;10.576;2023-10-13T11:41:48;11.02;;;4.70;;
11121;SDS011;5615;49.304;10.576;2023-10-13T11:44:19;12.20;;;4.60;;
11121;SDS011;5615;49.304;10.576;2023-10-13T11:47:09;8.05;;;4.72;;
11121;SDS011;5615;49.304;10.576;2023-10-13T11:49:53;8.23;;;4.45;;
11121;SDS011;5615;49.304;10.576;2023-10-13T11:52:24;7.82;;;4.40;;
11121;SDS011;5615;49.304;10.576;2023-10-13T11:54:55;6.10;;;3.80;;
11121;SDS011;5615;49.304;10.576;2023-10-13T11:57:21;8.80;;;4.13;;
11121;SDS011;5615;49.304;10.576;2023-10-13T11:59:49;7.75;;;3.97;;
11121;SDS011;5615;49.304;10.576;2023-10-13T12:02:46;8.18;;;3.80;;
11121;SDS011;5615;49.304;10.576;2023-10-13T12:05:31;8.98;;;4.13;;
11121;SDS011;5615;49.304;10.576;2023-10-13T12:08:14;7.25;;;3.40;;
11121;SDS011;5615;49.304;10.576;2023-10-13T12:10:47;6.43;;;4.18;;
11121;SDS011;5615;49.304;10.576;2023-10-13T12:13:24;7.63;;;4.07;;
11121;SDS011;5615;49.304;10.576;2023-10-13T12:15:51;7.78;;;4.45;;
11121;SDS011;5615;49.304;10.576;2023-10-13T12:18:23;6.50;;;4.22;;
11121;SDS011;5615;49.304;10.576;2023-10-13T12:20:52;8.80;;;4.15;;
11121;SDS011;5615;49.304;10.576;2023-10-13T12:23:19;9.10;;;4.05;;
11121;SDS011;5615;49.304;10.576;2023-10-13T12:25:56;8.55;;;3.72;;
11121;SDS011;5615;49.304;10.576;2023-10-13T12:28:26;5.63;;;3.58;;
11121;SDS011;5615;49.304;10.576;2023-10-13T12:30:53;8.18;;;4.05;;
11121;SDS011;5615;49.304;10.576;2023-10-13T12:33:24;8.80;;;3.88;;
11121;SDS011;5615;49.304;10.576;2023-10-13T12:35:55;6.72;;;3.90;;
11121;SDS011;5615;49.304;10.576;2023-10-13T12:38:52;6.53;;;4.00;;
11121;SDS011;5615;49.304;10.576;2023-10-13T12:41:36;10.35;;;4.03;;
11121;SDS011;5615;49.304;10.576;2023-10-13T12:44:17;6.10;;;3.78;;
11121;SDS011;5615;49.304;10.576;2023-10-13T12:47:03;6.03;;;3.70;;
11121;SDS011;5615;49.304;10.576;2023-10-13T12:49:49;7.93;;;4.15;;
11121;SDS011;5615;49.304;10.576;2023-10-13T12:52:23;4.95;;;3.50;;
11121;SDS011;5615;49.304;10.576;2023-10-13T12:54:56;8.68;;;3.78;;
11121;SDS011;5615;49.304;10.576;2023-10-13T12:57:40;6.97;;;3.50;;
11121;SDS011;5615;49.304;10.576;2023-10-13T13:00:10;10.80;;;4.10;;
11121;SDS011;5615;49.304;10.576;2023-10-13T13:02:49;7.30;;;3.80;;
11121;SDS011;5615;49.304;10.576;2023-10-13T13:05:19;5.93;;;3.70;;
11121;SDS011;5615;49.304;10.576;2023-10-13T13:07:47;6.32;;;3.75;;
11121;SDS011;5615;49.304;10.576;2023-10-13T13:10:17;6.82;;;3.40;;
11121;SDS011;5615;49.304;10.576;2023-10-13T13:12:44;7.50;;;4.00;;
11121;SDS011;5615;49.304;10.576;2023-10-13T13:15:11;6.82;;;4.10;;
11121;SDS011;5615;49.304;10.576;2023-10-13T13:17:39;6.90;;;4.00;;
11121;SDS011;5615;49.304;10.576;2023-10-13T13:20:06;4.13;;;3.47;;
11121;SDS011;5615;49.304;10.576;2023-10-13T13:22:51;6.45;;;3.60;;
11121;SDS011;5615;49.304;10.576;2023-10-13T13:25:19;5.35;;;3.65;;
11121;SDS011;5615;49.304;10.576;2023-10-13T13:27:51;8.13;;;4.00;;
11121;SDS011;5615;49.304;10.576;2023-10-13T13:30:17;6.68;;;3.42;;
11121;SDS011;5615;49.304;10.576;2023-10-13T13:32:46;6.13;;;3.50;;
11121;SDS011;5615;49.304;10.576;2023-10-13T13:35:13;8.07;;;3.60;;
11121;SDS011;5615;49.304;10.576;2023-10-13T13:37:43;12.23;;;4.28;;
11121;SDS011;5615;49.304;10.576;2023-10-13T13:40:12;6.90;;;4.25;;
11121;SDS011;5615;49.304;10.576;2023-10-13T13:42:46;7.82;;;4.00;;
11121;SDS011;5615;49.304;10.576;2023-10-13T13:45:13;8.75;;;3.85;;
11121;SDS011;5615;49.304;10.576;2023-10-13T13:47:52;6.80;;;3.92;;
11121;SDS011;5615;49.304;10.576;2023-10-13T13:50:20;8.63;;;3.95;;
11121;SDS011;5615;49.304;10.576;2023-10-13T13:52:50;8.43;;;4.07;;
11121;SDS011;5615;49.304;10.576;2023-10-13T13:55:19;10.45;;;3.97;;
11121;SDS011;5615;49.304;10.576;2023-10-13T13:57:46;5.70;;;3.80;;
11121;SDS011;5615;49.304;10.576;2023-10-13T14:00:15;9.23;;;3.75;;
11121;SDS011;5615;49.304;10.576;2023-10-13T14:02:47;12.75;;;4.00;;
11121;SDS011;5615;49.304;10.576;2023-10-13T14:05:13;6.70;;;4.20;;
11121;SDS011;5615;49.304;10.576;2023-10-13T14:07:41;10.88;;;4.35;;
11121;SDS011;5615;49.304;10.576;2023-10-13T14:10:13;10.50;;;4.30;;
11121;SDS011;5615;49.304;10.576;2023-10-13T14:12:57;9.70;;;4.25;;
11121;SDS011;5615;49.304;10.576;2023-10-13T14:15:32;11.75;;;4.28;;
11121;SDS011;5615;49.304;10.576;2023-10-13T14:18:04;8.88;;;4.00;;
11121;SDS011;5615;49.304;10.576;2023-10-13T14:20:32;8.30;;;3.80;;
11121;SDS011;5615;49.304;10.576;2023-10-13T14:23:04;9.20;;;4.10;;
11121;SDS011;5615;49.304;10.576;2023-10-13T14:25:32;9.07;;;4.03;;
11121;SDS011;5615;49.304;10.576;2023-10-13T14:28:04;7.15;;;3.53;;
11121;SDS011;5615;49.304;10.576;2023-10-13T14:30:31;7.72;;;3.50;;
11121;SDS011;5615;49.304;10.576;2023-10-13T14:32:58;5.88;;;3.50;;
11121;SDS011;5615;49.304;10.576;2023-10-13T14:35:26;7.53;;;3.70;;
11121;SDS011;5615;49.304;10.576;2023-10-13T14:37:52;6.60;;;3.67;;
11121;SDS011;5615;49.304;10.576;2023-10-13T14:40:19;10.13;;;4.10;;
11121;SDS011;5615;49.304;10.576;2023-10-13T14:42:47;8.98;;;3.97;;
11121;SDS011;5615;49.304;10.576;2023-10-13T14:45:15;10.48;;;3.88;;
11121;SDS011;5615;49.304;10.576;2023-10-13T14:47:42;5.40;;;3.33;;
11121;SDS011;5615;49.304;10.576;2023-10-13T14:50:10;8.25;;;3.90;;
11121;SDS011;5615;49.304;10.576;2023-10-13T14:52:44;6.88;;;3.70;;
11121;SDS011;5615;49.304;10.576;2023-10-13T14:55:11;7.55;;;3.75;;
11121;SDS011;5615;49.304;10.576;2023-10-13T14:57:45;8.43;;;3.17;;
11121;SDS011;5615;49.304;10.576;2023-10-13T15:00:12;9.20;;;4.10;;
11121;SDS011;5615;49.304;10.576;2023-10-13T15:02:41;12.73;;;3.42;;
11121;SDS011;5615;49.304;10.576;2023-10-13T15:05:08;13.18;;;4.28;;
11121;SDS011;5615;49.304;10.576;2023-10-13T15:07:41;11.25;;;4.20;;